sensor_id;sensor_type;location;lat;lon;timestamp;temperature;humidity
44723;DHT22;30451;48.638;10.624;2023-12-20T00:01:03;21.50;52.60
44723;DHT22;30451;48.638;10.624;2023-12-20T00:03:28;21.50;52.50
44723;DHT22;30451;48.638;10.624;2023-12-20T00:05:54;21.40;52.50
44723;DHT22;30451;48.638;10.624;2023-12-20T00:08:20;21.40;52.50
44723;DHT22;30451;48.638;10.624;2023-12-20T00:10:46;21.40;52.50
44723;DHT22;30451;48.638;10.624;2023-12-20T00:13:12;21.40;52.50
44723;DHT22;30451;48.638;10.624;2023-12-20T00:15:38;21.40;52.60
44723;DHT22;30451;48.638;10.624;2023-12-20T00:18:03;21.30;52.50
44723;DHT22;30451;48.638;10.624;2023-12-20T00:20:29;21.30;52.60
44723;DHT22;30451;48.638;10.624;2023-12-20T00:22:57;21.30;52.60
44723;DHT22;30451;48.638;10.624;2023-12-20T00:25:26;21.30;52.60
44723;DHT22;30451;48.638;10.624;2023-12-20T00:27:51;21.30;52.60
44723;DHT22;30451;48.638;10.624;2023-12-20T00:30:17;21.30;52.60
44723;DHT22;30451;48.638;10.624;2023-12-20T00:32:43;21.20;52.60
44723;DHT22;30451;48.638;10.624;2023-12-20T00:35:15;21.20;52.70
44723;DHT22;30451;48.638;10.624;2023-12-20T00:37:42;21.20;52.70
44723;DHT22;30451;48.638;10.624;2023-12-20T00:40:08;21.20;52.70
44723;DHT22;30451;48.638;10.624;2023-12-20T00:42:34;21.20;52.70
44723;DHT22;30451;48.638;10.624;2023-12-20T00:45:00;21.10;52.70
44723;DHT22;30451;48.638;10.624;2023-12-20T00:47:26;21.10;52.70
44723;DHT22;30451;48.638;10.624;2023-12-20T00:49:52;21.10;52.80
44723;DHT22;30451;48.638;10.624;2023-12-20T00:52:18;21.10;52.80
44723;DHT22;30451;48.638;10.624;2023-12-20T00:54:44;21.00;52.80
44723;DHT22;30451;48.638;10.624;2023-12-20T00:57:09;21.10;52.90
44723;DHT22;30451;48.638;10.624;2023-12-20T00:59:35;21.00;52.90
44723;DHT22;30451;48.638;10.624;2023-12-20T01:02:01;21.00;52.90
44723;DHT22;30451;48.638;10.624;2023-12-20T01:04:26;21.00;53.00
44723;DHT22;30451;48.638;10.624;2023-12-20T01:06:52;21.00;53.00
44723;DHT22;30451;48.638;10.624;2023-12-20T01:09:18;20.90;52.90
44723;DHT22;30451;48.638;10.624;2023-12-20T01:11:44;20.90;53.00
44723;DHT22;30451;48.638;10.624;2023-12-20T01:14:12;20.90;53.00
44723;DHT22;30451;48.638;10.624;2023-12-20T01:16:37;20.90;53.00
44723;DHT22;30451;48.638;10.624;2023-12-20T01:19:03;20.90;53.00
44723;DHT22;30451;48.638;10.624;2023-12-20T01:21:29;20.90;53.10
44723;DHT22;30451;48.638;10.624;2023-12-20T01:23:54;20.90;53.10
44723;DHT22;30451;48.638;10.624;2023-12-20T01:26:20;20.80;53.10
44723;DHT22;30451;48.638;10.624;2023-12-20T01:28:45;20.80;53.10
44723;DHT22;30451;48.638;10.624;2023-12-20T01:31:11;20.80;53.10
44723;DHT22;30451;48.638;10.624;2023-12-20T01:33:37;20.80;53.10
44723;DHT22;30451;48.638;10.624;2023-12-20T01:36:03;20.80;53.10
44723;DHT22;30451;48.638;10.624;2023-12-20T01:38:29;20.80;53.20
44723;DHT22;30451;48.638;10.624;2023-12-20T01:40:54;20.80;53.20
44723;DHT22;30451;48.638;10.624;2023-12-20T01:43:20;20.70;53.20
44723;DHT22;30451;48.638;10.624;2023-12-20T01:45:47;20.70;53.20
44723;DHT22;30451;48.638;10.624;2023-12-20T01:48:13;20.70;53.20
44723;DHT22;30451;48.638;10.624;2023-12-20T01:50:40;20.70;53.20
44723;DHT22;30451;48.638;10.624;2023-12-20T01:53:07;20.70;53.20
44723;DHT22;30451;48.638;10.624;2023-12-20T01:55:35;20.60;53.20
44723;DHT22;30451;48.638;10.624;2023-12-20T01:58:02;20.70;53.30
44723;DHT22;30451;48.638;10.624;2023-12-20T02:00:29;20.70;53.30
44723;DHT22;30451;48.638;10.624;2023-12-20T02:02:55;20.70;53.30
44723;DHT22;30451;48.638;10.624;2023-12-20T02:05:22;20.60;53.30
44723;DHT22;30451;48.638;10.624;2023-12-20T02:07:50;20.60;53.30
44723;DHT22;30451;48.638;10.624;2023-12-20T02:10:16;20.60;53.30
44723;DHT22;30451;48.638;10.624;2023-12-20T02:12:41;20.60;53.30
44723;DHT22;30451;48.638;10.624;2023-12-20T02:15:08;20.60;53.40
44723;DHT22;30451;48.638;10.624;2023-12-20T02:17:34;20.60;53.40
44723;DHT22;30451;48.638;10.624;2023-12-20T02:19:59;20.60;53.40
44723;DHT22;30451;48.638;10.624;2023-12-20T02:22:25;20.50;53.40
44723;DHT22;30451;48.638;10.624;2023-12-20T02:24:50;20.50;53.40
44723;DHT22;30451;48.638;10.624;2023-12-20T02:27:18;20.50;53.40
44723;DHT22;30451;48.638;10.624;2023-12-20T02:29:46;20.50;53.40
44723;DHT22;30451;48.638;10.624;2023-12-20T02:32:12;20.50;53.40
44723;DHT22;30451;48.638;10.624;2023-12-20T02:34:38;20.50;53.50
44723;DHT22;30451;48.638;10.624;2023-12-20T02:37:03;20.50;53.50
44723;DHT22;30451;48.638;10.624;2023-12-20T02:39:30;20.50;53.50
44723;DHT22;30451;48.638;10.624;2023-12-20T02:41:55;20.40;53.40
44723;DHT22;30451;48.638;10.624;2023-12-20T02:44:21;20.40;53.50
44723;DHT22;30451;48.638;10.624;2023-12-20T02:46:47;20.40;53.50
44723;DHT22;30451;48.638;10.624;2023-12-20T02:49:12;20.40;53.50
44723;DHT22;30451;48.638;10.624;2023-12-20T02:51:38;20.40;53.60
44723;DHT22;30451;48.638;10.624;2023-12-20T02:54:04;20.40;53.60
44723;DHT22;30451;48.638;10.624;2023-12-20T02:56:30;20.40;53.60
44723;DHT22;30451;48.638;10.624;2023-12-20T02:58:55;20.40;53.60
44723;DHT22;30451;48.638;10.624;2023-12-20T03:01:21;20.30;53.60
44723;DHT22;30451;48.638;10.624;2023-12-20T03:03:46;20.30;53.70
44723;DHT22;30451;48.638;10.624;2023-12-20T03:06:18;20.30;53.60
44723;DHT22;30451;48.638;10.624;2023-12-20T03:08:45;20.30;53.70
44723;DHT22;30451;48.638;10.624;2023-12-20T03:11:10;20.30;53.70
44723;DHT22;30451;48.638;10.624;2023-12-20T03:13:36;20.30;53.70
44723;DHT22;30451;48.638;10.624;2023-12-20T03:16:08;20.30;53.70
44723;DHT22;30451;48.638;10.624;2023-12-20T03:18:34;20.30;53.70
44723;DHT22;30451;48.638;10.624;2023-12-20T03:21:00;20.20;53.70
44723;DHT22;30451;48.638;10.624;2023-12-20T03:23:25;20.30;53.80
44723;DHT22;30451;48.638;10.624;2023-12-20T03:25:52;20.20;53.70
44723;DHT22;30451;48.638;10.624;2023-12-20T03:28:18;20.20;53.80
44723;DHT22;30451;48.638;10.624;2023-12-20T03:30:44;20.20;53.80
44723;DHT22;30451;48.638;10.624;2023-12-20T03:33:10;20.30;53.90
44723;DHT22;30451;48.638;10.624;2023-12-20T03:35:35;20.20;53.80
44723;DHT22;30451;48.638;10.624;2023-12-20T03:38:01;20.20;53.80
44723;DHT22;30451;48.638;10.624;2023-12-20T03:40:27;20.20;53.90
44723;DHT22;30451;48.638;10.624;2023-12-20T03:42:53;20.20;53.90
44723;DHT22;30451;48.638;10.624;2023-12-20T03:45:18;20.20;53.90
44723;DHT22;30451;48.638;10.624;2023-12-20T03:47:44;20.20;54.00
44723;DHT22;30451;48.638;10.624;2023-12-20T03:50:09;20.20;54.00
44723;DHT22;30451;48.638;10.624;2023-12-20T03:52:35;20.20;54.00
44723;DHT22;30451;48.638;10.624;2023-12-20T03:55:00;20.10;54.00
44723;DHT22;30451;48.638;10.624;2023-12-20T03:57:26;20.10;54.50
44723;DHT22;30451;48.638;10.624;2023-12-20T03:59:52;20.10;54.00
44723;DHT22;30451;48.638;10.624;2023-12-20T04:02:17;20.10;54.00
44723;DHT22;30451;48.638;10.624;2023-12-20T04:04:43;20.10;54.00
44723;DHT22;30451;48.638;10.624;2023-12-20T04:07:09;20.10;54.00
44723;DHT22;30451;48.638;10.624;2023-12-20T04:09:34;20.10;54.10
44723;DHT22;30451;48.638;10.624;2023-12-20T04:12:00;20.10;54.10
44723;DHT22;30451;48.638;10.624;2023-12-20T04:14:29;20.10;54.10
44723;DHT22;30451;48.638;10.624;2023-12-20T04:16:54;20.10;54.10
44723;DHT22;30451;48.638;10.624;2023-12-20T04:19:20;20.10;54.10
44723;DHT22;30451;48.638;10.624;2023-12-20T04:21:45;20.00;54.10
44723;DHT22;30451;48.638;10.624;2023-12-20T04:24:11;20.10;54.10
44723;DHT22;30451;48.638;10.624;2023-12-20T04:26:37;20.00;54.10
44723;DHT22;30451;48.638;10.624;2023-12-20T04:29:02;20.00;54.10
44723;DHT22;30451;48.638;10.624;2023-12-20T04:31:28;20.00;54.20
44723;DHT22;30451;48.638;10.624;2023-12-20T04:33:53;20.00;54.20
44723;DHT22;30451;48.638;10.624;2023-12-20T04:36:19;20.00;54.20
44723;DHT22;30451;48.638;10.624;2023-12-20T04:38:44;20.00;54.20
44723;DHT22;30451;48.638;10.624;2023-12-20T04:41:10;20.00;54.20
44723;DHT22;30451;48.638;10.624;2023-12-20T04:43:36;20.00;54.30
44723;DHT22;30451;48.638;10.624;2023-12-20T04:46:01;20.00;54.30
44723;DHT22;30451;48.638;10.624;2023-12-20T04:48:27;20.00;54.30
44723;DHT22;30451;48.638;10.624;2023-12-20T04:50:53;19.90;54.30
44723;DHT22;30451;48.638;10.624;2023-12-20T04:53:18;19.90;54.30
44723;DHT22;30451;48.638;10.624;2023-12-20T04:55:44;19.90;54.40
44723;DHT22;30451;48.638;10.624;2023-12-20T04:58:10;19.90;54.40
44723;DHT22;30451;48.638;10.624;2023-12-20T05:00:35;19.90;54.50
44723;DHT22;30451;48.638;10.624;2023-12-20T05:03:01;19.90;54.60
44723;DHT22;30451;48.638;10.624;2023-12-20T05:05:26;19.90;54.70
44723;DHT22;30451;48.638;10.624;2023-12-20T05:07:52;19.90;54.70
44723;DHT22;30451;48.638;10.624;2023-12-20T05:10:18;19.80;54.70
44723;DHT22;30451;48.638;10.624;2023-12-20T05:12:43;19.80;54.80
44723;DHT22;30451;48.638;10.624;2023-12-20T05:15:09;19.80;54.70
44723;DHT22;30451;48.638;10.624;2023-12-20T05:17:34;19.80;54.80
44723;DHT22;30451;48.638;10.624;2023-12-20T05:20:00;19.80;54.70
44723;DHT22;30451;48.638;10.624;2023-12-20T05:22:26;19.80;54.80
44723;DHT22;30451;48.638;10.624;2023-12-20T05:24:53;19.80;54.80
44723;DHT22;30451;48.638;10.624;2023-12-20T05:27:18;19.80;55.30
44723;DHT22;30451;48.638;10.624;2023-12-20T05:29:44;19.80;54.90
44723;DHT22;30451;48.638;10.624;2023-12-20T05:32:10;19.80;54.90
44723;DHT22;30451;48.638;10.624;2023-12-20T05:34:35;19.80;54.90
44723;DHT22;30451;48.638;10.624;2023-12-20T05:37:02;19.80;55.00
44723;DHT22;30451;48.638;10.624;2023-12-20T05:39:27;19.80;55.00
44723;DHT22;30451;48.638;10.624;2023-12-20T05:41:53;19.70;54.90
44723;DHT22;30451;48.638;10.624;2023-12-20T05:44:19;19.80;55.00
44723;DHT22;30451;48.638;10.624;2023-12-20T05:46:44;19.80;55.00
44723;DHT22;30451;48.638;10.624;2023-12-20T05:49:10;19.70;55.00
44723;DHT22;30451;48.638;10.624;2023-12-20T05:51:36;19.80;55.10
44723;DHT22;30451;48.638;10.624;2023-12-20T05:54:02;19.70;55.10
44723;DHT22;30451;48.638;10.624;2023-12-20T05:56:27;19.70;55.10
44723;DHT22;30451;48.638;10.624;2023-12-20T05:58:53;19.70;55.10
44723;DHT22;30451;48.638;10.624;2023-12-20T06:01:18;19.80;55.20
44723;DHT22;30451;48.638;10.624;2023-12-20T06:03:44;19.70;55.20
44723;DHT22;30451;48.638;10.624;2023-12-20T06:06:11;19.70;55.20
44723;DHT22;30451;48.638;10.624;2023-12-20T06:08:38;19.70;55.20
44723;DHT22;30451;48.638;10.624;2023-12-20T06:11:04;19.70;55.20
44723;DHT22;30451;48.638;10.624;2023-12-20T06:13:31;19.70;55.20
44723;DHT22;30451;48.638;10.624;2023-12-20T06:15:57;19.70;55.30
44723;DHT22;30451;48.638;10.624;2023-12-20T06:18:23;19.70;55.30
44723;DHT22;30451;48.638;10.624;2023-12-20T06:20:48;19.70;55.30
44723;DHT22;30451;48.638;10.624;2023-12-20T06:23:14;19.70;55.30
44723;DHT22;30451;48.638;10.624;2023-12-20T06:25:39;19.70;55.30
44723;DHT22;30451;48.638;10.624;2023-12-20T06:28:05;19.70;55.30
44723;DHT22;30451;48.638;10.624;2023-12-20T06:30:31;19.70;55.30
44723;DHT22;30451;48.638;10.624;2023-12-20T06:32:58;19.70;55.30
44723;DHT22;30451;48.638;10.624;2023-12-20T06:35:24;19.70;55.30
44723;DHT22;30451;48.638;10.624;2023-12-20T06:37:49;19.70;55.30
44723;DHT22;30451;48.638;10.624;2023-12-20T06:40:15;19.70;55.30
44723;DHT22;30451;48.638;10.624;2023-12-20T06:42:41;19.70;55.40
44723;DHT22;30451;48.638;10.624;2023-12-20T06:45:07;19.70;55.40
44723;DHT22;30451;48.638;10.624;2023-12-20T06:47:33;19.70;55.30
44723;DHT22;30451;48.638;10.624;2023-12-20T06:49:59;19.70;55.40
44723;DHT22;30451;48.638;10.624;2023-12-20T06:52:24;19.70;55.40
44723;DHT22;30451;48.638;10.624;2023-12-20T06:54:50;19.60;55.30
44723;DHT22;30451;48.638;10.624;2023-12-20T06:57:16;19.70;55.40
44723;DHT22;30451;48.638;10.624;2023-12-20T06:59:42;19.60;55.40
44723;DHT22;30451;48.638;10.624;2023-12-20T07:02:08;19.70;56.60
44723;DHT22;30451;48.638;10.624;2023-12-20T07:04:38;19.80;56.60
44723;DHT22;30451;48.638;10.624;2023-12-20T07:07:04;20.00;56.80
44723;DHT22;30451;48.638;10.624;2023-12-20T07:09:29;20.10;56.50
44723;DHT22;30451;48.638;10.624;2023-12-20T07:11:55;20.30;56.30
44723;DHT22;30451;48.638;10.624;2023-12-20T07:14:20;20.40;55.80
44723;DHT22;30451;48.638;10.624;2023-12-20T07:16:46;20.50;55.30
44723;DHT22;30451;48.638;10.624;2023-12-20T07:19:12;20.70;55.00
44723;DHT22;30451;48.638;10.624;2023-12-20T07:21:38;20.80;54.70
44723;DHT22;30451;48.638;10.624;2023-12-20T07:24:04;21.00;54.40
44723;DHT22;30451;48.638;10.624;2023-12-20T07:26:29;21.10;54.20
44723;DHT22;30451;48.638;10.624;2023-12-20T07:28:55;21.20;54.00
44723;DHT22;30451;48.638;10.624;2023-12-20T07:31:21;21.30;53.80
44723;DHT22;30451;48.638;10.624;2023-12-20T07:33:46;21.40;53.50
44723;DHT22;30451;48.638;10.624;2023-12-20T07:36:12;21.40;53.30
44723;DHT22;30451;48.638;10.624;2023-12-20T07:38:38;21.50;53.20
44723;DHT22;30451;48.638;10.624;2023-12-20T07:41:04;21.60;53.20
44723;DHT22;30451;48.638;10.624;2023-12-20T07:43:30;21.70;53.00
44723;DHT22;30451;48.638;10.624;2023-12-20T07:45:55;21.80;52.70
44723;DHT22;30451;48.638;10.624;2023-12-20T07:48:21;21.90;52.30
44723;DHT22;30451;48.638;10.624;2023-12-20T07:50:47;22.00;52.10
44723;DHT22;30451;48.638;10.624;2023-12-20T07:53:12;22.10;52.00
44723;DHT22;30451;48.638;10.624;2023-12-20T07:55:39;22.20;51.80
44723;DHT22;30451;48.638;10.624;2023-12-20T07:58:05;22.30;51.50
44723;DHT22;30451;48.638;10.624;2023-12-20T08:00:30;22.40;51.60
44723;DHT22;30451;48.638;10.624;2023-12-20T08:02:56;22.40;51.30
44723;DHT22;30451;48.638;10.624;2023-12-20T08:05:21;22.60;51.00
44723;DHT22;30451;48.638;10.624;2023-12-20T08:07:47;22.70;50.90
44723;DHT22;30451;48.638;10.624;2023-12-20T08:10:13;22.70;50.90
44723;DHT22;30451;48.638;10.624;2023-12-20T08:12:38;22.80;50.50
44723;DHT22;30451;48.638;10.624;2023-12-20T08:15:05;22.80;50.30
44723;DHT22;30451;48.638;10.624;2023-12-20T08:17:31;22.80;50.20
44723;DHT22;30451;48.638;10.624;2023-12-20T08:19:57;22.80;50.00
44723;DHT22;30451;48.638;10.624;2023-12-20T08:22:22;22.90;50.10
44723;DHT22;30451;48.638;10.624;2023-12-20T08:24:48;23.00;50.00
44723;DHT22;30451;48.638;10.624;2023-12-20T08:27:13;23.00;50.00
44723;DHT22;30451;48.638;10.624;2023-12-20T08:29:39;23.00;49.80
44723;DHT22;30451;48.638;10.624;2023-12-20T08:32:05;23.10;49.80
44723;DHT22;30451;48.638;10.624;2023-12-20T08:34:30;23.10;49.90
44723;DHT22;30451;48.638;10.624;2023-12-20T08:36:56;23.10;50.00
44723;DHT22;30451;48.638;10.624;2023-12-20T08:39:22;23.00;49.90
44723;DHT22;30451;48.638;10.624;2023-12-20T08:41:47;23.00;50.00
44723;DHT22;30451;48.638;10.624;2023-12-20T08:44:14;23.00;50.00
44723;DHT22;30451;48.638;10.624;2023-12-20T08:46:39;23.00;50.10
44723;DHT22;30451;48.638;10.624;2023-12-20T08:49:05;22.90;50.20
44723;DHT22;30451;48.638;10.624;2023-12-20T08:51:30;22.90;50.10
44723;DHT22;30451;48.638;10.624;2023-12-20T08:53:56;22.90;50.50
44723;DHT22;30451;48.638;10.624;2023-12-20T08:56:22;22.90;50.30
44723;DHT22;30451;48.638;10.624;2023-12-20T08:58:47;22.90;50.10
44723;DHT22;30451;48.638;10.624;2023-12-20T09:01:14;22.90;50.10
44723;DHT22;30451;48.638;10.624;2023-12-20T09:03:40;22.90;50.10
44723;DHT22;30451;48.638;10.624;2023-12-20T09:06:06;22.90;50.10
44723;DHT22;30451;48.638;10.624;2023-12-20T09:08:32;22.80;50.00
44723;DHT22;30451;48.638;10.624;2023-12-20T09:10:57;22.80;50.00
44723;DHT22;30451;48.638;10.624;2023-12-20T09:13:23;22.80;50.00
44723;DHT22;30451;48.638;10.624;2023-12-20T09:15:57;22.80;50.10
44723;DHT22;30451;48.638;10.624;2023-12-20T09:18:22;22.80;50.10
44723;DHT22;30451;48.638;10.624;2023-12-20T09:20:48;22.80;50.10
44723;DHT22;30451;48.638;10.624;2023-12-20T09:23:14;22.80;50.10
44723;DHT22;30451;48.638;10.624;2023-12-20T09:25:39;22.80;50.20
44723;DHT22;30451;48.638;10.624;2023-12-20T09:28:05;22.80;50.30
44723;DHT22;30451;48.638;10.624;2023-12-20T09:30:33;22.80;50.60
44723;DHT22;30451;48.638;10.624;2023-12-20T09:32:59;22.80;50.60
44723;DHT22;30451;48.638;10.624;2023-12-20T09:35:24;22.90;50.10
44723;DHT22;30451;48.638;10.624;2023-12-20T09:37:51;23.10;50.10
44723;DHT22;30451;48.638;10.624;2023-12-20T09:40:19;23.20;49.80
44723;DHT22;30451;48.638;10.624;2023-12-20T09:42:50;23.30;49.80
44723;DHT22;30451;48.638;10.624;2023-12-20T09:45:20;23.30;49.50
44723;DHT22;30451;48.638;10.624;2023-12-20T09:47:48;23.40;49.50
44723;DHT22;30451;48.638;10.624;2023-12-20T09:50:14;23.50;49.50
44723;DHT22;30451;48.638;10.624;2023-12-20T09:52:41;23.50;49.50
44723;DHT22;30451;48.638;10.624;2023-12-20T09:55:09;23.60;49.50
44723;DHT22;30451;48.638;10.624;2023-12-20T09:57:35;23.60;49.20
44723;DHT22;30451;48.638;10.624;2023-12-20T10:00:01;23.70;49.00
44723;DHT22;30451;48.638;10.624;2023-12-20T10:02:27;23.60;49.50
44723;DHT22;30451;48.638;10.624;2023-12-20T10:04:54;23.60;48.90
44723;DHT22;30451;48.638;10.624;2023-12-20T10:07:19;23.60;48.90
44723;DHT22;30451;48.638;10.624;2023-12-20T10:09:46;23.60;49.10
44723;DHT22;30451;48.638;10.624;2023-12-20T10:12:12;23.50;49.20
44723;DHT22;30451;48.638;10.624;2023-12-20T10:14:39;23.50;49.20
44723;DHT22;30451;48.638;10.624;2023-12-20T10:17:05;23.50;49.50
44723;DHT22;30451;48.638;10.624;2023-12-20T10:19:32;23.50;49.40
44723;DHT22;30451;48.638;10.624;2023-12-20T10:21:59;23.40;49.30
44723;DHT22;30451;48.638;10.624;2023-12-20T10:24:28;23.40;49.30
44723;DHT22;30451;48.638;10.624;2023-12-20T10:27:08;23.30;49.30
44723;DHT22;30451;48.638;10.624;2023-12-20T10:29:37;23.30;49.30
44723;DHT22;30451;48.638;10.624;2023-12-20T10:32:23;23.30;49.40
44723;DHT22;30451;48.638;10.624;2023-12-20T10:34:50;23.30;49.40
44723;DHT22;30451;48.638;10.624;2023-12-20T10:37:15;23.20;49.40
44723;DHT22;30451;48.638;10.624;2023-12-20T10:39:42;23.20;49.50
44723;DHT22;30451;48.638;10.624;2023-12-20T10:42:10;23.20;49.60
44723;DHT22;30451;48.638;10.624;2023-12-20T10:44:36;23.20;49.70
44723;DHT22;30451;48.638;10.624;2023-12-20T10:47:03;23.10;49.70
44723;DHT22;30451;48.638;10.624;2023-12-20T10:49:30;23.10;49.80
44723;DHT22;30451;48.638;10.624;2023-12-20T10:51:59;23.10;49.80
44723;DHT22;30451;48.638;10.624;2023-12-20T10:54:27;23.10;49.70
44723;DHT22;30451;48.638;10.624;2023-12-20T10:56:53;23.00;49.70
44723;DHT22;30451;48.638;10.624;2023-12-20T10:59:20;23.00;49.80
44723;DHT22;30451;48.638;10.624;2023-12-20T11:01:48;23.00;49.80
44723;DHT22;30451;48.638;10.624;2023-12-20T11:04:20;23.00;49.80
44723;DHT22;30451;48.638;10.624;2023-12-20T11:10:13;22.90;49.90
44723;DHT22;30451;48.638;10.624;2023-12-20T11:12:54;22.90;50.00
44723;DHT22;30451;48.638;10.624;2023-12-20T11:15:23;22.90;50.00
44723;DHT22;30451;48.638;10.624;2023-12-20T11:17:57;22.90;50.00
44723;DHT22;30451;48.638;10.624;2023-12-20T11:20:24;22.80;50.00
44723;DHT22;30451;48.638;10.624;2023-12-20T11:23:00;22.80;50.00
44723;DHT22;30451;48.638;10.624;2023-12-20T11:25:26;22.80;50.00
44723;DHT22;30451;48.638;10.624;2023-12-20T11:28:11;22.80;50.10
44723;DHT22;30451;48.638;10.624;2023-12-20T11:30:46;22.80;50.10
44723;DHT22;30451;48.638;10.624;2023-12-20T11:33:14;22.80;50.20
44723;DHT22;30451;48.638;10.624;2023-12-20T11:35:40;22.70;50.20
44723;DHT22;30451;48.638;10.624;2023-12-20T11:38:10;22.70;50.30
44723;DHT22;30451;48.638;10.624;2023-12-20T11:40:36;22.70;50.40
44723;DHT22;30451;48.638;10.624;2023-12-20T11:43:03;22.70;50.40
44723;DHT22;30451;48.638;10.624;2023-12-20T11:45:29;22.70;50.40
44723;DHT22;30451;48.638;10.624;2023-12-20T11:47:56;22.60;50.40
44723;DHT22;30451;48.638;10.624;2023-12-20T11:50:23;22.60;50.50
44723;DHT22;30451;48.638;10.624;2023-12-20T11:52:50;22.60;50.50
44723;DHT22;30451;48.638;10.624;2023-12-20T11:55:17;22.60;50.50
44723;DHT22;30451;48.638;10.624;2023-12-20T11:57:43;22.60;50.60
44723;DHT22;30451;48.638;10.624;2023-12-20T12:00:13;22.60;50.60
44723;DHT22;30451;48.638;10.624;2023-12-20T12:02:39;22.60;50.60
44723;DHT22;30451;48.638;10.624;2023-12-20T12:05:05;22.60;50.70
44723;DHT22;30451;48.638;10.624;2023-12-20T12:07:32;22.50;50.70
44723;DHT22;30451;48.638;10.624;2023-12-20T12:09:57;22.50;50.80
44723;DHT22;30451;48.638;10.624;2023-12-20T12:12:24;22.50;50.80
44723;DHT22;30451;48.638;10.624;2023-12-20T12:14:50;22.50;50.80
44723;DHT22;30451;48.638;10.624;2023-12-20T12:17:16;22.50;50.80
44723;DHT22;30451;48.638;10.624;2023-12-20T12:19:43;22.50;50.80
44723;DHT22;30451;48.638;10.624;2023-12-20T12:22:11;22.50;50.90
44723;DHT22;30451;48.638;10.624;2023-12-20T12:24:45;22.50;50.90
44723;DHT22;30451;48.638;10.624;2023-12-20T12:27:12;22.50;50.90
44723;DHT22;30451;48.638;10.624;2023-12-20T12:29:38;22.50;51.00
44723;DHT22;30451;48.638;10.624;2023-12-20T12:32:08;22.40;50.90
44723;DHT22;30451;48.638;10.624;2023-12-20T12:34:37;22.50;51.00
44723;DHT22;30451;48.638;10.624;2023-12-20T12:37:06;22.50;51.10
44723;DHT22;30451;48.638;10.624;2023-12-20T12:39:32;22.40;51.10
44723;DHT22;30451;48.638;10.624;2023-12-20T12:41:57;22.40;51.20
44723;DHT22;30451;48.638;10.624;2023-12-20T12:44:23;22.40;51.20
44723;DHT22;30451;48.638;10.624;2023-12-20T12:46:50;22.40;51.30
44723;DHT22;30451;48.638;10.624;2023-12-20T12:49:21;22.40;51.40
44723;DHT22;30451;48.638;10.624;2023-12-20T12:51:47;22.40;51.40
44723;DHT22;30451;48.638;10.624;2023-12-20T12:54:13;22.40;51.30
44723;DHT22;30451;48.638;10.624;2023-12-20T12:56:41;22.40;51.20
44723;DHT22;30451;48.638;10.624;2023-12-20T12:59:06;22.40;51.20
44723;DHT22;30451;48.638;10.624;2023-12-20T13:01:32;22.40;51.20
44723;DHT22;30451;48.638;10.624;2023-12-20T13:03:58;22.40;51.20
44723;DHT22;30451;48.638;10.624;2023-12-20T13:06:23;22.30;51.20
44723;DHT22;30451;48.638;10.624;2023-12-20T13:08:49;22.40;51.30
44723;DHT22;30451;48.638;10.624;2023-12-20T13:11:15;22.30;51.30
44723;DHT22;30451;48.638;10.624;2023-12-20T13:13:41;22.30;51.40
44723;DHT22;30451;48.638;10.624;2023-12-20T13:16:07;22.30;51.40
44723;DHT22;30451;48.638;10.624;2023-12-20T13:18:32;22.30;51.40
44723;DHT22;30451;48.638;10.624;2023-12-20T13:20:58;22.30;51.50
44723;DHT22;30451;48.638;10.624;2023-12-20T13:23:24;22.30;51.50
44723;DHT22;30451;48.638;10.624;2023-12-20T13:25:49;22.30;51.60
44723;DHT22;30451;48.638;10.624;2023-12-20T13:28:15;22.30;51.70
44723;DHT22;30451;48.638;10.624;2023-12-20T13:30:41;22.30;51.70
44723;DHT22;30451;48.638;10.624;2023-12-20T13:33:07;22.30;51.70
44723;DHT22;30451;48.638;10.624;2023-12-20T13:35:33;22.30;51.90
44723;DHT22;30451;48.638;10.624;2023-12-20T13:38:00;22.30;51.90
44723;DHT22;30451;48.638;10.624;2023-12-20T13:40:26;22.30;51.90
44723;DHT22;30451;48.638;10.624;2023-12-20T13:42:52;22.30;51.80
44723;DHT22;30451;48.638;10.624;2023-12-20T13:45:17;22.30;51.80
44723;DHT22;30451;48.638;10.624;2023-12-20T13:47:43;22.30;51.80
44723;DHT22;30451;48.638;10.624;2023-12-20T13:50:09;22.30;51.80
44723;DHT22;30451;48.638;10.624;2023-12-20T13:52:35;22.20;51.80
44723;DHT22;30451;48.638;10.624;2023-12-20T13:55:01;22.20;51.80
44723;DHT22;30451;48.638;10.624;2023-12-20T13:57:27;22.20;51.80
44723;DHT22;30451;48.638;10.624;2023-12-20T13:59:55;22.20;51.90
44723;DHT22;30451;48.638;10.624;2023-12-20T14:02:24;22.20;51.90
44723;DHT22;30451;48.638;10.624;2023-12-20T14:04:49;22.20;52.30
44723;DHT22;30451;48.638;10.624;2023-12-20T14:07:15;22.20;51.80
44723;DHT22;30451;48.638;10.624;2023-12-20T14:09:41;22.20;51.70
44723;DHT22;30451;48.638;10.624;2023-12-20T14:12:13;22.20;51.70
44723;DHT22;30451;48.638;10.624;2023-12-20T14:14:39;22.20;51.80
44723;DHT22;30451;48.638;10.624;2023-12-20T14:17:05;22.20;51.80
44723;DHT22;30451;48.638;10.624;2023-12-20T14:19:33;22.20;51.80
44723;DHT22;30451;48.638;10.624;2023-12-20T14:21:58;22.20;51.80
44723;DHT22;30451;48.638;10.624;2023-12-20T14:24:28;22.20;51.80
44723;DHT22;30451;48.638;10.624;2023-12-20T14:26:53;22.20;52.10
44723;DHT22;30451;48.638;10.624;2023-12-20T14:29:19;22.20;51.80
44723;DHT22;30451;48.638;10.624;2023-12-20T14:31:45;22.10;51.90
44723;DHT22;30451;48.638;10.624;2023-12-20T14:34:10;22.10;51.90
44723;DHT22;30451;48.638;10.624;2023-12-20T14:36:36;22.20;52.00
44723;DHT22;30451;48.638;10.624;2023-12-20T14:39:02;22.10;51.90
44723;DHT22;30451;48.638;10.624;2023-12-20T14:41:30;22.10;51.90
44723;DHT22;30451;48.638;10.624;2023-12-20T14:43:55;22.10;51.90
44723;DHT22;30451;48.638;10.624;2023-12-20T14:46:21;22.10;51.90
44723;DHT22;30451;48.638;10.624;2023-12-20T14:48:46;22.10;51.90
44723;DHT22;30451;48.638;10.624;2023-12-20T14:51:13;22.10;52.00
44723;DHT22;30451;48.638;10.624;2023-12-20T14:53:39;22.10;52.00
44723;DHT22;30451;48.638;10.624;2023-12-20T14:56:05;22.10;52.00
44723;DHT22;30451;48.638;10.624;2023-12-20T14:58:31;22.10;52.00
44723;DHT22;30451;48.638;10.624;2023-12-20T15:00:57;22.10;52.00
44723;DHT22;30451;48.638;10.624;2023-12-20T15:03:23;22.10;52.00
44723;DHT22;30451;48.638;10.624;2023-12-20T15:05:49;22.10;52.00
44723;DHT22;30451;48.638;10.624;2023-12-20T15:08:15;22.10;52.10
44723;DHT22;30451;48.638;10.624;2023-12-20T15:10:41;22.10;52.10
44723;DHT22;30451;48.638;10.624;2023-12-20T15:13:07;22.10;52.10